createdAt,value
2018-04-19T00:02:41.116Z,4.17
2018-04-19T00:05:44.543Z,4.40
2018-04-19T00:08:48.578Z,4.50
2018-04-19T00:11:51.865Z,4.33
2018-04-19T00:14:55.115Z,5.17
2018-04-19T00:17:58.391Z,4.80
2018-04-19T00:21:01.645Z,3.83
2018-04-19T00:24:04.943Z,4.67
2018-04-19T00:27:08.964Z,5.50
2018-04-19T00:30:12.448Z,4.30
2018-04-19T00:33:16.468Z,4.63
2018-04-19T00:36:20.525Z,4.47
2018-04-19T00:39:23.801Z,5.07
2018-04-19T00:42:27.070Z,4.43
2018-04-19T00:45:31.083Z,4.37
2018-04-19T00:48:35.150Z,4.60
2018-04-19T00:51:38.407Z,4.10
2018-04-19T00:54:42.464Z,4.00
2018-04-19T00:57:45.744Z,4.00
2018-04-19T01:00:49.004Z,3.67
2018-04-19T01:03:52.259Z,3.90
2018-04-19T01:06:55.642Z,4.80
2018-04-19T01:09:58.913Z,3.72
2018-04-19T01:13:02.936Z,4.27
2018-04-19T01:16:06.949Z,4.50
2018-04-19T01:19:10.993Z,4.13
2018-04-19T01:22:14.276Z,4.93
2018-04-19T01:25:17.550Z,5.13
2018-04-19T01:28:21.696Z,4.03
2018-04-19T01:31:24.954Z,4.03
2018-04-19T01:34:28.254Z,3.77
2018-04-19T01:37:32.280Z,4.30
2018-04-19T01:40:36.361Z,4.40
2018-04-19T01:43:39.630Z,3.85
2018-04-19T01:46:42.922Z,4.30
2018-04-19T01:49:46.209Z,4.07
2018-04-19T01:52:49.471Z,3.93
2018-04-19T01:55:52.720Z,4.47
2018-04-19T01:58:56.011Z,3.90
2018-04-19T02:02:00.867Z,4.33
2018-04-19T02:05:04.124Z,4.30
2018-04-19T02:08:08.162Z,4.30
2018-04-19T02:11:11.410Z,4.07
2018-04-19T02:14:14.675Z,4.43
2018-04-19T02:17:18.691Z,4.27
2018-04-19T02:20:21.966Z,4.13
2018-04-19T02:23:25.263Z,4.10
2018-04-19T02:26:29.480Z,4.03
2018-04-19T02:29:32.774Z,4.10
2018-04-19T02:32:36.851Z,4.43
2018-04-19T02:35:40.893Z,5.20
2018-04-19T02:38:44.179Z,5.07
2018-04-19T02:41:48.222Z,4.83
2018-04-19T02:44:51.486Z,4.73
2018-04-19T02:47:55.527Z,4.57
2018-04-19T02:50:58.792Z,4.80
2018-04-19T02:54:02.821Z,4.77
2018-04-19T02:57:06.842Z,4.90
2018-04-19T03:00:10.115Z,4.97
2018-04-19T03:03:14.168Z,4.50
2018-04-19T03:06:17.531Z,5.50
2018-04-19T03:09:21.641Z,5.03
2018-04-19T03:12:25.910Z,5.77
2018-04-19T03:15:29.326Z,5.87
2018-04-19T03:18:32.592Z,4.87
2018-04-19T03:21:35.833Z,5.63
2018-04-19T03:24:39.123Z,5.00
2018-04-19T03:27:43.153Z,4.73
2018-04-19T03:30:46.493Z,5.30
2018-04-19T03:33:50.608Z,4.95
2018-04-19T03:37:12.911Z,4.83
2018-04-19T03:40:17.978Z,4.82
2018-04-19T03:43:21.993Z,5.00
2018-04-19T03:46:26.103Z,5.60
2018-04-19T03:49:29.432Z,4.70
2018-04-19T03:52:32.699Z,5.13
2018-04-19T03:55:36.734Z,5.10
2018-04-19T03:58:40.023Z,4.87
2018-04-19T04:01:44.045Z,4.93
2018-04-19T04:04:48.068Z,4.87
2018-04-19T04:07:51.360Z,4.83
2018-04-19T04:10:54.641Z,6.37
2018-04-19T04:13:58.669Z,5.10
2018-04-19T04:17:20.403Z,4.47
2018-04-19T04:20:42.264Z,5.23
2018-04-19T04:23:53.363Z,5.37
2018-04-19T04:27:01.213Z,5.53
2018-04-19T04:30:04.939Z,5.33
2018-04-19T04:33:08.571Z,5.27
2018-04-19T04:36:12.888Z,5.23
2018-04-19T04:39:16.605Z,5.10
2018-04-19T04:42:21.961Z,5.73
2018-04-19T04:45:25.236Z,4.73
2018-04-19T04:48:30.081Z,5.80
2018-04-19T04:51:33.962Z,5.63
2018-04-19T04:54:37.577Z,5.47
2018-04-19T04:58:01.370Z,6.37
2018-04-19T05:01:06.510Z,5.03
2018-04-19T05:04:11.762Z,4.93
2018-04-19T05:07:18.070Z,5.87
2018-04-19T05:10:24.651Z,5.10
2018-04-19T05:13:27.910Z,5.33
2018-04-19T05:16:32.617Z,6.50
2018-04-19T05:19:36.713Z,5.73
2018-04-19T05:22:40.003Z,5.10
2018-04-19T05:25:43.257Z,5.10
2018-04-19T05:28:48.151Z,5.40
2018-04-19T05:31:51.518Z,5.03
2018-04-19T05:34:55.541Z,5.28
2018-04-19T05:37:58.798Z,4.73
2018-04-19T05:41:02.050Z,5.00
2018-04-19T05:44:05.322Z,4.63
2018-04-19T05:47:09.346Z,4.90
2018-04-19T05:50:12.601Z,4.70
2018-04-19T05:53:15.876Z,4.83
2018-04-19T05:56:19.154Z,4.80
2018-04-19T05:59:22.435Z,4.30
2018-04-19T06:02:25.705Z,3.73
2018-04-19T06:05:28.967Z,4.13
2018-04-19T06:08:32.245Z,4.10
2018-04-19T06:11:35.534Z,4.30
2018-04-19T06:14:38.806Z,4.50
2018-04-19T06:17:42.834Z,3.60
2018-04-19T06:20:46.111Z,3.73
2018-04-19T06:23:50.272Z,3.60
2018-04-19T06:26:53.559Z,3.60
2018-04-19T06:29:56.927Z,3.30
2018-04-19T06:33:00.192Z,3.10
2018-04-19T06:36:03.477Z,3.50
2018-04-19T06:39:06.748Z,2.77
2018-04-19T06:42:10.787Z,2.77
2018-04-19T06:45:14.055Z,3.27
2018-04-19T06:48:17.326Z,2.83
2018-04-19T06:51:20.608Z,3.03
2018-04-19T06:54:23.861Z,3.12
2018-04-19T06:57:27.163Z,3.03
2018-04-19T07:00:30.442Z,2.87
2018-04-19T07:03:34.499Z,3.30
2018-04-19T07:06:37.792Z,2.87
2018-04-19T07:09:41.090Z,3.30
2018-04-19T07:12:44.393Z,3.27
2018-04-19T07:15:47.670Z,3.10
2018-04-19T07:18:50.947Z,3.30
2018-04-19T07:21:54.243Z,3.33
2018-04-19T07:24:57.517Z,3.43
2018-04-19T07:28:01.566Z,3.80
2018-04-19T07:31:04.872Z,4.50
2018-04-19T07:34:08.152Z,3.40
2018-04-19T07:37:11.425Z,3.70
2018-04-19T07:40:15.464Z,3.80
2018-04-19T07:43:18.915Z,3.67
2018-04-19T07:46:22.213Z,3.50
2018-04-19T07:49:25.515Z,3.90
2018-04-19T07:52:28.784Z,3.83
2018-04-19T07:55:32.104Z,3.60
2018-04-19T07:58:35.390Z,3.67
2018-04-19T08:01:38.652Z,3.83
2018-04-19T08:04:41.997Z,3.20
2018-04-19T08:07:45.272Z,3.30
2018-04-19T08:10:48.592Z,3.60
2018-04-19T08:13:51.979Z,3.40
2018-04-19T08:16:55.238Z,3.37
2018-04-19T08:19:58.554Z,4.00
2018-04-19T08:23:02.600Z,3.13
2018-04-19T08:26:05.909Z,2.77
2018-04-19T08:29:09.185Z,3.00
2018-04-19T08:32:12.459Z,2.77
2018-04-19T08:35:16.511Z,2.57
2018-04-19T08:38:19.797Z,2.50
2018-04-19T08:41:23.147Z,2.53
2018-04-19T08:44:26.397Z,2.73
2018-04-19T08:47:29.671Z,2.57
2018-04-19T08:50:32.954Z,2.10
2018-04-19T08:53:37.013Z,2.13
2018-04-19T08:56:40.278Z,2.27
2018-04-19T08:59:44.334Z,2.00
2018-04-19T09:02:47.631Z,2.33
2018-04-19T09:05:50.921Z,2.60
2018-04-19T09:08:54.255Z,2.40
2018-04-19T09:11:57.532Z,2.40
2018-04-19T09:15:00.795Z,2.10
2018-04-19T09:18:04.068Z,2.40
2018-04-19T09:21:08.108Z,2.20
2018-04-19T09:24:11.386Z,1.90
2018-04-19T09:27:15.618Z,2.13
2018-04-19T09:30:18.879Z,2.30
2018-04-19T09:33:22.193Z,2.03
2018-04-19T09:36:26.224Z,1.87
2018-04-19T09:39:29.498Z,2.10
2018-04-19T09:42:32.894Z,2.23
2018-04-19T09:45:36.146Z,2.17
2018-04-19T09:48:39.416Z,2.30
2018-04-19T09:51:42.674Z,2.10
2018-04-19T09:54:45.939Z,1.98
2018-04-19T09:58:06.893Z,2.20
2018-04-19T10:01:11.102Z,3.43
2018-04-19T10:04:14.434Z,2.80
2018-04-19T10:07:17.691Z,2.67
2018-04-19T10:10:20.967Z,2.90
2018-04-19T10:13:24.245Z,2.67
2018-04-19T10:16:27.540Z,2.53
2018-04-19T10:19:30.814Z,3.20
2018-04-19T10:22:35.381Z,2.80
2018-04-19T10:25:38.638Z,2.57
2018-04-19T10:28:42.666Z,2.60
2018-04-19T10:31:45.925Z,2.50
2018-04-19T10:34:49.192Z,2.90
2018-04-19T10:37:52.470Z,2.80
2018-04-19T10:40:56.396Z,2.73
2018-04-19T10:43:59.660Z,2.40
2018-04-19T10:47:03.766Z,2.03
2018-04-19T10:50:07.019Z,2.22
2018-04-19T10:53:10.338Z,2.33
2018-04-19T10:56:13.782Z,2.37
2018-04-19T10:59:17.066Z,2.03
2018-04-19T11:02:21.161Z,2.03
2018-04-19T11:05:25.195Z,1.80
2018-04-19T11:08:29.234Z,2.30
2018-04-19T11:11:32.516Z,1.63
2018-04-19T11:14:36.563Z,2.07
2018-04-19T11:17:39.823Z,1.87
2018-04-19T11:20:43.875Z,2.63
2018-04-19T11:23:47.159Z,2.63
2018-04-19T11:26:50.428Z,2.80
2018-04-19T11:29:54.484Z,2.40
2018-04-19T11:32:57.781Z,1.97
2018-04-19T11:36:01.044Z,2.67
2018-04-19T11:39:04.355Z,3.07
2018-04-19T11:42:07.634Z,2.50
2018-04-19T11:45:11.651Z,2.83
2018-04-19T11:48:15.709Z,2.53
2018-04-19T11:51:18.968Z,3.00
2018-04-19T11:54:23.092Z,2.57
2018-04-19T11:57:26.426Z,3.03
2018-04-19T12:00:29.674Z,2.97
2018-04-19T12:03:33.727Z,5.20
2018-04-19T12:06:36.998Z,2.80
2018-04-19T12:09:41.325Z,3.57
2018-04-19T12:12:44.676Z,3.23
2018-04-19T12:15:48.165Z,2.97
2018-04-19T12:18:51.433Z,3.50
2018-04-19T12:21:54.691Z,3.23
2018-04-19T12:24:57.969Z,2.55
2018-04-19T12:28:01.226Z,3.07
2018-04-19T12:31:04.500Z,2.73
2018-04-19T12:34:08.581Z,2.50
2018-04-19T12:37:11.811Z,3.03
2018-04-19T12:40:15.868Z,2.57
2018-04-19T12:43:19.136Z,2.57
2018-04-19T12:46:23.164Z,2.37
2018-04-19T12:49:26.439Z,2.80
2018-04-19T12:52:35.425Z,3.00
2018-04-19T12:55:40.174Z,2.90
2018-04-19T12:58:43.461Z,2.57
2018-04-19T13:01:47.228Z,2.80
2018-04-19T13:04:52.283Z,3.17
2018-04-19T13:07:55.609Z,3.00
2018-04-19T13:10:58.885Z,2.90
2018-04-19T13:14:02.255Z,1.83
2018-04-19T13:17:06.327Z,2.70
2018-04-19T13:20:09.616Z,2.50
2018-04-19T13:23:12.907Z,2.67
2018-04-19T13:26:16.226Z,3.20
2018-04-19T13:29:20.293Z,2.80
2018-04-19T13:32:24.624Z,2.97
2018-04-19T13:35:27.914Z,3.30
2018-04-19T13:38:31.186Z,3.57
2018-04-19T13:41:35.262Z,3.30
2018-04-19T13:44:38.522Z,1.93
2018-04-19T13:47:41.805Z,2.73
2018-04-19T13:50:45.139Z,2.83
2018-04-19T13:53:49.233Z,3.07
2018-04-19T13:56:52.528Z,3.07
2018-04-19T13:59:56.583Z,3.13
2018-04-19T14:02:59.959Z,3.70
2018-04-19T14:06:04.294Z,3.77
2018-04-19T14:09:10.361Z,3.53
2018-04-19T14:12:13.633Z,3.83
2018-04-19T14:15:16.949Z,3.23
2018-04-19T14:18:20.214Z,3.80
2018-04-19T14:21:23.670Z,3.03
2018-04-19T14:24:26.950Z,2.87
2018-04-19T14:27:30.263Z,3.43
2018-04-19T14:30:33.802Z,3.23
2018-04-19T14:33:37.136Z,3.37
2018-04-19T14:36:40.415Z,3.83
2018-04-19T14:39:43.714Z,2.90
2018-04-19T14:42:46.970Z,3.23
2018-04-19T14:45:50.247Z,3.13
2018-04-19T14:48:53.531Z,2.77
2018-04-19T14:51:56.981Z,3.03
2018-04-19T14:55:01.041Z,2.93
2018-04-19T14:58:04.314Z,2.87
2018-04-19T15:01:07.647Z,2.87
2018-04-19T15:04:10.920Z,2.85
2018-04-19T15:07:14.185Z,2.73
2018-04-19T15:10:17.469Z,3.30
2018-04-19T15:13:20.747Z,2.33
2018-04-19T15:16:24.229Z,2.87
2018-04-19T15:19:27.554Z,2.90
2018-04-19T15:22:30.830Z,2.97
2018-04-19T15:25:34.101Z,2.33
2018-04-19T15:28:37.361Z,2.53
2018-04-19T15:31:40.670Z,2.23
2018-04-19T15:34:43.918Z,2.20
2018-04-19T15:37:47.189Z,2.50
2018-04-19T15:40:51.215Z,2.07
2018-04-19T15:43:54.506Z,2.50
2018-04-19T15:46:57.847Z,2.33
2018-04-19T15:50:01.182Z,2.40
2018-04-19T15:53:04.454Z,2.90
2018-04-19T15:56:07.786Z,2.17
2018-04-19T15:59:11.826Z,2.10
2018-04-19T16:02:15.136Z,2.20
2018-04-19T16:05:18.417Z,1.80
2018-04-19T16:08:23.446Z,2.00
2018-04-19T16:11:27.771Z,1.70
2018-04-19T16:14:32.028Z,1.67
2018-04-19T16:17:35.299Z,1.70
2018-04-19T16:20:39.498Z,1.50
2018-04-19T16:23:43.547Z,1.47
2018-04-19T16:26:46.810Z,1.77
2018-04-19T16:29:50.091Z,1.47
2018-04-19T16:32:53.403Z,1.53
2018-04-19T16:35:57.395Z,1.33
2018-04-19T16:39:00.664Z,1.40
2018-04-19T16:42:03.992Z,1.27
2018-04-19T16:45:08.043Z,1.50
2018-04-19T16:48:11.656Z,1.70
2018-04-19T16:51:15.994Z,1.60
2018-04-19T16:54:20.014Z,1.47
2018-04-19T16:57:24.198Z,1.10
2018-04-19T17:00:28.298Z,1.10
2018-04-19T17:03:31.924Z,1.43
2018-04-19T17:06:35.200Z,1.63
2018-04-19T17:09:38.537Z,1.30
2018-04-19T17:12:41.842Z,1.13
2018-04-19T17:15:45.309Z,1.30
2018-04-19T17:18:49.368Z,0.90
2018-04-19T17:21:53.484Z,0.87
2018-04-19T17:24:56.782Z,1.23
2018-04-19T17:28:03.121Z,1.13
2018-04-19T17:31:06.453Z,1.13
2018-04-19T17:34:10.514Z,1.60
2018-04-19T17:37:14.011Z,1.37
2018-04-19T17:40:17.411Z,1.40
2018-04-19T17:43:20.766Z,2.13
2018-04-19T17:46:24.853Z,1.13
2018-04-19T17:49:28.276Z,1.27
2018-04-19T17:52:32.295Z,2.83
2018-04-19T17:55:37.299Z,3.13
2018-04-19T17:58:40.570Z,3.07
2018-04-19T18:01:43.832Z,2.73
2018-04-19T18:05:04.101Z,3.53
2018-04-19T18:08:34.660Z,3.00
2018-04-19T18:11:40.386Z,5.63
2018-04-19T18:14:43.716Z,7.20
2018-04-19T18:17:47.737Z,9.07
2018-04-19T18:20:51.767Z,7.10
2018-04-19T18:23:55.063Z,4.03
2018-04-19T18:26:58.333Z,4.13
2018-04-19T18:30:02.359Z,3.00
2018-04-19T18:33:05.655Z,2.50
2018-04-19T18:36:09.682Z,1.63
2018-04-19T18:39:12.983Z,1.77
2018-04-19T18:42:16.267Z,2.30
2018-04-19T18:45:20.480Z,2.70
2018-04-19T18:48:23.757Z,2.25
2018-04-19T18:51:27.023Z,2.30
2018-04-19T18:54:30.289Z,1.70
2018-04-19T18:57:33.573Z,1.43
2018-04-19T19:00:37.619Z,1.80
2018-04-19T19:03:40.884Z,1.50
2018-04-19T19:06:45.996Z,1.37
2018-04-19T19:09:50.688Z,1.57
2018-04-19T19:12:53.969Z,1.90
2018-04-19T19:16:12.119Z,1.80
2018-04-19T19:19:34.315Z,1.73
2018-04-19T19:22:37.633Z,1.50
2018-04-19T19:25:40.938Z,1.47
2018-04-19T19:28:44.175Z,1.43
2018-04-19T19:31:47.530Z,1.20
2018-04-19T19:34:50.801Z,1.70
2018-04-19T19:37:58.964Z,1.70
2018-04-19T19:41:02.826Z,2.00
2018-04-19T19:44:06.117Z,1.20
2018-04-19T19:47:11.845Z,1.50
2018-04-19T19:50:15.131Z,1.60
2018-04-19T19:53:19.067Z,1.73
2018-04-19T19:56:22.366Z,2.40
2018-04-19T19:59:26.419Z,2.10
2018-04-19T20:02:29.709Z,2.67
2018-04-19T20:05:32.999Z,2.87
2018-04-19T20:08:40.352Z,2.10
2018-04-19T20:11:43.615Z,2.70
2018-04-19T20:14:46.889Z,2.67
2018-04-19T20:17:50.953Z,2.43
2018-04-19T20:20:54.240Z,2.67
2018-04-19T20:23:57.503Z,2.13
2018-04-19T20:27:01.535Z,2.53
2018-04-19T20:30:05.625Z,2.10
2018-04-19T20:33:08.857Z,2.17
2018-04-19T20:36:12.159Z,2.12
2018-04-19T20:39:15.471Z,1.67
2018-04-19T20:42:18.747Z,1.63
2018-04-19T20:45:22.045Z,1.60
2018-04-19T20:48:25.313Z,1.70
2018-04-19T20:51:28.598Z,2.00
2018-04-19T20:54:32.961Z,1.90
2018-04-19T20:57:37.931Z,2.10
2018-04-19T21:00:41.358Z,2.80
2018-04-19T21:03:44.654Z,2.20
2018-04-19T21:06:47.919Z,1.90
2018-04-19T21:09:51.188Z,2.70
2018-04-19T21:12:55.206Z,2.40
2018-04-19T21:15:59.229Z,1.90
2018-04-19T21:19:03.333Z,2.53
2018-04-19T21:22:07.389Z,3.30
2018-04-19T21:25:10.694Z,3.13
2018-04-19T21:28:13.978Z,2.93
2018-04-19T21:31:17.238Z,2.33
2018-04-19T21:34:20.502Z,2.63
2018-04-19T21:37:23.767Z,2.70
2018-04-19T21:40:27.044Z,2.05
2018-04-19T21:43:31.494Z,2.43
2018-04-19T21:46:34.762Z,2.00
2018-04-19T21:49:38.943Z,1.83
2018-04-19T21:52:42.196Z,1.53
2018-04-19T21:55:46.219Z,1.97
2018-04-19T21:58:50.385Z,1.90
2018-04-19T22:01:53.724Z,2.20
2018-04-19T22:04:57.848Z,2.13
2018-04-19T22:08:01.136Z,1.93
2018-04-19T22:11:05.161Z,2.20
2018-04-19T22:14:08.501Z,1.70
2018-04-19T22:17:12.554Z,1.70
2018-04-19T22:20:16.594Z,1.93
2018-04-19T22:23:19.872Z,2.03
2018-04-19T22:26:23.569Z,2.60
2018-04-19T22:29:27.816Z,2.00
2018-04-19T22:32:31.897Z,2.20
2018-04-19T22:35:35.180Z,2.13
2018-04-19T22:38:38.460Z,2.37
2018-04-19T22:41:41.721Z,2.37
2018-04-19T22:44:45.751Z,2.37
2018-04-19T22:47:49.009Z,2.20
2018-04-19T22:50:52.278Z,2.27
2018-04-19T22:53:55.610Z,2.37
2018-04-19T22:56:58.950Z,2.10
2018-04-19T23:00:02.338Z,2.70
2018-04-19T23:03:06.148Z,2.50
2018-04-19T23:06:09.424Z,1.90
2018-04-19T23:09:12.690Z,2.30
2018-04-19T23:12:15.965Z,2.20
2018-04-19T23:15:19.266Z,2.33
2018-04-19T23:18:22.532Z,2.33
2018-04-19T23:21:25.808Z,2.33
2018-04-19T23:24:29.878Z,2.35
2018-04-19T23:27:33.204Z,2.57
2018-04-19T23:30:36.533Z,2.20
2018-04-19T23:33:39.791Z,2.10
2018-04-19T23:36:43.047Z,2.00
2018-04-19T23:39:46.415Z,1.83
2018-04-19T23:42:49.669Z,2.13
2018-04-19T23:45:53.760Z,2.40
2018-04-19T23:52:07.452Z,2.00
2018-04-19T23:55:10.716Z,1.93
2018-04-19T23:58:14.081Z,2.13
